Time;durP1;ratioP1;P1;durP2;ratioP2;P2;SDS_P1;SDS_P2;PMS_P1;PMS_P2;Temp;Humidity;BMP_temperature;BMP_pressure;BME280_temperature;BME280_humidity;BME280_pressure;Samples;Min_cycle;Max_cycle;Signal;HPM_P1;HPM_P2
2023/08/28 00:01:05;;;;;;;4.28;2.92;;;12.90;99.90;;;;;;5058220;28;20060;-58
2023/08/28 00:03:35;;;;;;;5.82;2.92;;;12.90;99.90;;;;;;5046609;28;20045;-58
2023/08/28 00:06:03;;;;;;;5.00;3.20;;;13.00;99.90;;;;;;5046507;28;20048;-58
2023/08/28 00:08:31;;;;;;;4.40;3.00;;;13.00;99.90;;;;;;5049688;28;20060;-58
2023/08/28 00:10:59;;;;;;;5.30;3.20;;;13.10;99.90;;;;;;5049890;28;20060;-58
2023/08/28 00:13:26;;;;;;;3.45;3.00;;;13.10;99.90;;;;;;5043371;28;20033;-58
2023/08/28 00:15:54;;;;;;;4.93;3.10;;;13.10;99.90;;;;;;5029144;28;20041;-58
2023/08/28 00:18:22;;;;;;;3.55;3.08;;;13.00;99.90;;;;;;5035090;28;20052;-59
2023/08/28 00:20:50;;;;;;;3.00;2.70;;;13.10;99.90;;;;;;5049737;28;20055;-58
2023/08/28 00:23:17;;;;;;;5.13;3.22;;;13.00;99.90;;;;;;5049335;28;20052;-59
2023/08/28 00:25:45;;;;;;;4.22;2.92;;;13.00;99.90;;;;;;5049548;28;20049;-58
2023/08/28 00:28:13;;;;;;;4.53;3.10;;;13.00;99.90;;;;;;5045575;28;20052;-58
2023/08/28 00:30:41;;;;;;;3.80;2.97;;;13.10;99.90;;;;;;5068289;28;20047;-58
2023/08/28 00:33:08;;;;;;;5.97;3.55;;;13.10;99.90;;;;;;5061735;28;20044;-58
2023/08/28 00:35:36;;;;;;;3.95;2.80;;;13.10;99.90;;;;;;5048599;28;20064;-59
2023/08/28 00:38:04;;;;;;;3.90;3.10;;;13.10;99.90;;;;;;5048433;28;20041;-58
2023/08/28 00:40:31;;;;;;;5.63;3.10;;;13.00;99.90;;;;;;5048357;28;20048;-59
2023/08/28 00:43:00;;;;;;;5.68;3.70;;;13.00;99.90;;;;;;5042434;28;20037;-58
2023/08/28 00:45:30;;;;;;;7.77;3.80;;;12.90;99.90;;;;;;5049398;28;20084;-59
2023/08/28 00:47:58;;;;;;;5.13;3.60;;;12.90;99.90;;;;;;5050849;28;20302;-58
2023/08/28 00:50:26;;;;;;;4.28;3.47;;;12.90;99.90;;;;;;5045322;28;20484;-59
2023/08/28 00:52:53;;;;;;;4.75;3.45;;;12.80;99.90;;;;;;5039355;28;20064;-58
2023/08/28 00:55:21;;;;;;;5.78;4.78;;;12.80;99.90;;;;;;5031314;28;20049;-59
2023/08/28 00:57:49;;;;;;;9.27;4.90;;;12.80;99.90;;;;;;5042912;28;20483;-58
2023/08/28 01:00:18;;;;;;;6.65;5.30;;;12.80;99.90;;;;;;5055529;28;20528;-58
2023/08/28 01:02:45;;;;;;;8.68;6.18;;;12.90;99.90;;;;;;5044390;28;20124;-59
2023/08/28 01:05:15;;;;;;;10.00;7.78;;;12.90;99.90;;;;;;5045374;28;20482;-58
2023/08/28 01:08:05;;;;;;;;;;;12.90;99.90;;;;;;5045054;28;20049;-58
2023/08/28 01:10:47;;;;;;;12.93;7.68;;;12.90;99.90;;;;;;5028925;28;19921;-59
2023/08/28 01:13:37;;;;;;;13.80;9.75;;;12.90;99.90;;;;;;5041611;28;20067;-60
2023/08/28 01:16:06;;;;;;;12.00;8.35;;;12.90;99.90;;;;;;5047583;28;20045;-58
2023/08/28 01:18:35;;;;;;;9.05;7.72;;;12.90;99.90;;;;;;5030966;28;20052;-59
2023/08/28 01:21:04;;;;;;;8.23;6.50;;;12.90;99.90;;;;;;5047642;28;20048;-59
2023/08/28 01:23:56;;;;;;;8.98;6.78;;;12.80;99.90;;;;;;5048075;28;20473;-58
2023/08/28 01:26:24;;;;;;;10.68;6.80;;;12.80;99.90;;;;;;5047516;28;20059;-58
2023/08/28 01:28:52;;;;;;;10.20;7.15;;;12.80;99.90;;;;;;5044109;28;20052;-59
2023/08/28 01:31:22;;;;;;;8.65;6.75;;;12.80;99.90;;;;;;5044944;28;20056;-59
2023/08/28 01:33:51;;;;;;;8.07;5.70;;;12.80;99.90;;;;;;5047147;28;20053;-59
2023/08/28 01:36:33;;;;;;;8.10;5.93;;;12.80;99.90;;;;;;5030485;28;20045;-59
2023/08/28 01:39:15;;;;;;;7.78;6.07;;;12.80;99.90;;;;;;5041876;28;20381;-59
2023/08/28 01:41:48;;;;;;;8.18;5.22;;;12.90;99.90;;;;;;5036185;28;20404;-59
2023/08/28 01:44:17;;;;;;;;;;;12.90;99.90;;;;;;5049506;28;20485;-59
2023/08/28 01:46:45;;;;;;;7.30;4.70;;;12.90;99.90;;;;;;5034858;28;19928;-59
2023/08/28 01:49:13;;;;;;;6.68;4.40;;;12.90;99.90;;;;;;5030579;28;20037;-58
2023/08/28 01:51:42;;;;;;;6.65;4.60;;;12.90;99.90;;;;;;5047132;28;20056;-58
2023/08/28 01:54:10;;;;;;;6.75;4.05;;;12.90;99.90;;;;;;5030481;28;20396;-58
2023/08/28 01:56:37;;;;;;;4.65;3.47;;;12.90;99.90;;;;;;5047105;28;20052;-58
2023/08/28 01:59:05;;;;;;;5.47;4.07;;;12.90;99.90;;;;;;5029658;28;20052;-59
2023/08/28 02:01:32;;;;;;;5.85;4.13;;;12.90;99.90;;;;;;5067910;28;20060;-59
2023/08/28 02:04:00;;;;;;;4.60;3.78;;;12.80;99.90;;;;;;5051322;28;20507;-59
2023/08/28 02:06:28;;;;;;;5.25;3.67;;;12.90;99.90;;;;;;5051085;28;20052;-59
2023/08/28 02:08:55;;;;;;;5.28;4.53;;;12.90;99.90;;;;;;5025525;28;20053;-58
2023/08/28 02:11:23;;;;;;;7.13;4.30;;;12.90;99.90;;;;;;5032557;28;20053;-59
2023/08/28 02:13:52;;;;;;;4.38;3.90;;;12.90;99.90;;;;;;5050950;28;20060;-59
2023/08/28 02:16:19;;;;;;;6.85;4.20;;;12.90;99.90;;;;;;5050190;28;20049;-58
2023/08/28 02:18:48;;;;;;;7.15;4.30;;;12.90;99.90;;;;;;5049882;28;20045;-59
2023/08/28 02:21:16;;;;;;;6.78;4.28;;;12.90;99.90;;;;;;5050160;28;20537;-59
2023/08/28 02:23:45;;;;;;;5.18;4.35;;;12.90;99.90;;;;;;5050281;28;20045;-59
2023/08/28 02:26:12;;;;;;;4.82;4.20;;;12.90;99.90;;;;;;5051490;28;20041;-59
2023/08/28 02:28:40;;;;;;;6.28;4.00;;;12.80;99.90;;;;;;5051306;28;20045;-59
2023/08/28 02:31:08;;;;;;;4.93;4.25;;;12.80;99.90;;;;;;5064846;28;20040;-58
2023/08/28 02:33:37;;;;;;;6.55;4.20;;;12.70;99.90;;;;;;5070049;28;20066;-58
2023/08/28 02:36:04;;;;;;;12.52;4.00;;;12.60;99.90;;;;;;5073354;28;20048;-58
2023/08/28 02:38:32;;;;;;;5.82;4.45;;;12.60;99.90;;;;;;5071021;28;20052;-58
2023/08/28 02:41:07;;;;;;;5.95;4.45;;;12.50;99.90;;;;;;5055029;28;20045;-59
2023/08/28 02:43:38;;;;;;;5.72;4.50;;;12.50;99.90;;;;;;5050199;28;20043;-58
2023/08/28 02:46:05;;;;;;;5.93;4.47;;;12.40;99.90;;;;;;5053870;28;20053;-59
2023/08/28 02:48:33;;;;;;;7.32;4.07;;;12.40;99.90;;;;;;5053668;28;20293;-58
2023/08/28 02:51:01;;;;;;;11.00;4.28;;;12.40;99.90;;;;;;5053945;28;20408;-59
2023/08/28 02:53:28;;;;;;;7.53;4.93;;;12.40;99.90;;;;;;5053331;28;20045;-58
2023/08/28 02:56:29;;;;;;;7.35;4.32;;;12.40;99.90;;;;;;5037197;28;20504;-58
2023/08/28 02:58:57;;;;;;;8.20;4.38;;;12.40;99.90;;;;;;5052798;28;20037;-58
2023/08/28 03:01:25;;;;;;;5.10;3.97;;;12.50;99.90;;;;;;5070356;28;20056;-58
2023/08/28 03:03:52;;;;;;;9.63;4.68;;;12.50;99.90;;;;;;5074674;28;20044;-59
2023/08/28 03:06:20;;;;;;;8.15;4.75;;;12.50;99.90;;;;;;5073362;28;20036;-58
2023/08/28 03:08:49;;;;;;;6.93;5.05;;;12.50;99.90;;;;;;5073112;28;20056;-58
2023/08/28 03:11:17;;;;;;;6.65;4.80;;;12.60;99.90;;;;;;5073015;28;20045;-58
2023/08/28 03:13:44;;;;;;;7.93;4.97;;;12.60;99.90;;;;;;5053937;28;20056;-59
2023/08/28 03:16:12;;;;;;;8.32;5.75;;;12.60;99.90;;;;;;5053211;28;20049;-59
2023/08/28 03:18:40;;;;;;;8.02;5.40;;;12.70;99.90;;;;;;5053005;28;20037;-58
2023/08/28 03:21:08;;;;;;;7.90;6.07;;;12.70;99.90;;;;;;5053190;28;20480;-59
2023/08/28 03:23:35;;;;;;;8.95;6.00;;;12.70;99.90;;;;;;5053185;28;20037;-58
2023/08/28 03:26:03;;;;;;;10.50;6.18;;;12.80;99.90;;;;;;5054082;28;20060;-58
2023/08/28 03:28:31;;;;;;;8.23;6.30;;;12.90;99.90;;;;;;5054614;28;20056;-58
2023/08/28 03:30:59;;;;;;;11.23;7.68;;;12.90;99.90;;;;;;5067426;28;20468;-59
2023/08/28 03:33:27;;;;;;;13.52;7.43;;;12.90;99.90;;;;;;5074061;28;20432;-58
2023/08/28 03:35:56;;;;;;;9.98;6.95;;;12.90;99.90;;;;;;5072931;28;20513;-58
2023/08/28 03:38:23;;;;;;;8.55;6.85;;;12.90;99.90;;;;;;5074075;28;20388;-58
2023/08/28 03:40:51;;;;;;;11.05;6.40;;;13.00;99.90;;;;;;5059825;28;20044;-58
2023/08/28 03:43:19;;;;;;;7.38;6.38;;;13.00;99.90;;;;;;5053749;28;20428;-59
2023/08/28 03:45:47;;;;;;;8.73;6.53;;;13.00;99.90;;;;;;5052047;28;20052;-58
2023/08/28 03:48:14;;;;;;;6.63;5.00;;;13.00;99.90;;;;;;5053543;28;20397;-58
2023/08/28 03:50:46;;;;;;;6.78;5.38;;;13.00;99.90;;;;;;5052609;28;20040;-58
2023/08/28 03:53:13;;;;;;;8.70;5.65;;;13.00;99.90;;;;;;5054047;28;20048;-58
2023/08/28 03:55:41;;;;;;;7.00;5.05;;;13.00;99.90;;;;;;5053996;28;20045;-58
2023/08/28 03:58:08;;;;;;;6.43;4.55;;;13.00;99.90;;;;;;5052524;28;20033;-59
2023/08/28 04:00:39;;;;;;;5.70;4.97;;;13.00;99.90;;;;;;5057385;28;20057;-59
2023/08/28 04:03:06;;;;;;;7.60;5.32;;;13.00;99.90;;;;;;5053579;28;20045;-59
2023/08/28 04:05:40;;;;;;;6.82;5.68;;;13.10;99.90;;;;;;5053448;28;20048;-58
2023/08/28 04:08:08;;;;;;;7.47;5.40;;;13.00;99.90;;;;;;5035357;28;20057;-58
2023/08/28 04:10:36;;;;;;;9.00;6.15;;;13.00;99.90;;;;;;5032290;28;20033;-58
2023/08/28 04:13:03;;;;;;;7.20;6.25;;;13.10;99.90;;;;;;5047211;28;20036;-58
2023/08/28 04:15:33;;;;;;;8.43;6.72;;;13.10;99.90;;;;;;5053383;28;20044;-58
2023/08/28 04:18:00;;;;;;;8.25;6.10;;;13.10;99.90;;;;;;5053060;28;20049;-58
2023/08/28 04:20:28;;;;;;;10.00;6.18;;;13.10;99.90;;;;;;5052123;28;20045;-59
2023/08/28 04:22:56;;;;;;;10.23;6.68;;;13.10;99.90;;;;;;5052004;28;20049;-59
2023/08/28 04:25:23;;;;;;;11.00;6.57;;;13.10;99.90;;;;;;5053138;28;20048;-59
2023/08/28 04:27:51;;;;;;;7.68;6.13;;;13.20;99.90;;;;;;5053119;28;20068;-58
2023/08/28 04:30:19;;;;;;;7.55;6.03;;;13.20;99.90;;;;;;5060274;28;20431;-58
2023/08/28 04:32:48;;;;;;;8.48;6.38;;;13.20;99.90;;;;;;5055029;28;20049;-58
2023/08/28 04:35:19;;;;;;;7.32;5.30;;;13.20;99.90;;;;;;5071552;28;20049;-58
2023/08/28 04:37:47;;;;;;;8.20;5.38;;;13.20;99.90;;;;;;5059353;28;20057;-58
2023/08/28 04:40:15;;;;;;;8.68;4.40;;;13.20;99.90;;;;;;5051642;28;20037;-58
2023/08/28 04:42:43;;;;;;;5.70;3.78;;;13.20;99.90;;;;;;5039300;28;20045;-58
2023/08/28 04:45:10;;;;;;;8.40;4.05;;;13.20;99.90;;;;;;5049959;28;20048;-58
2023/08/28 04:47:38;;;;;;;15.43;4.93;;;13.20;99.90;;;;;;5043604;28;20376;-58
2023/08/28 04:50:07;;;;;;;8.68;4.13;;;13.20;99.90;;;;;;5047802;28;20060;-58
2023/08/28 04:52:34;;;;;;;9.05;3.83;;;13.20;99.90;;;;;;5047608;28;20045;-58
2023/08/28 04:55:03;;;;;;;10.02;5.18;;;13.10;99.90;;;;;;5047994;28;20037;-58
2023/08/28 04:57:32;;;;;;;11.05;5.05;;;13.10;99.90;;;;;;5047222;28;20047;-58
2023/08/28 05:00:00;;;;;;;14.93;5.18;;;13.10;99.90;;;;;;5054190;28;20399;-58
2023/08/28 05:02:30;;;;;;;18.20;4.75;;;13.10;99.90;;;;;;5048067;28;20052;-58
2023/08/28 05:04:58;;;;;;;11.63;4.80;;;13.10;99.90;;;;;;5045740;28;20045;-58
2023/08/28 05:07:26;;;;;;;14.57;4.30;;;13.00;99.90;;;;;;5044124;28;20531;-58
2023/08/28 05:09:55;;;;;;;13.23;3.80;;;13.00;99.90;;;;;;5041940;28;20492;-58
2023/08/28 05:12:22;;;;;;;10.88;3.30;;;13.00;99.90;;;;;;5045727;28;20049;-58
2023/08/28 05:14:51;;;;;;;8.95;3.67;;;13.00;99.90;;;;;;5047282;28;20044;-58
2023/08/28 05:17:18;;;;;;;12.27;2.97;;;13.00;99.90;;;;;;5048504;28;20497;-58
2023/08/28 05:19:46;;;;;;;11.25;2.85;;;12.90;99.90;;;;;;5043787;28;20042;-58
2023/08/28 05:22:14;;;;;;;7.95;2.75;;;12.80;99.90;;;;;;5036655;28;20045;-59
2023/08/28 05:24:42;;;;;;;12.30;3.13;;;12.80;99.90;;;;;;5067543;28;20048;-60
2023/08/28 05:27:10;;;;;;;13.32;3.03;;;12.70;99.90;;;;;;5067193;28;20043;-58
2023/08/28 05:29:38;;;;;;;17.55;3.47;;;12.70;99.90;;;;;;5032024;28;20064;-58
2023/08/28 05:32:06;;;;;;;12.02;3.42;;;12.60;99.90;;;;;;5062217;28;20052;-58
2023/08/28 05:34:34;;;;;;;11.65;3.38;;;12.60;99.90;;;;;;5040393;28;20052;-58
2023/08/28 05:37:02;;;;;;;15.82;3.35;;;12.50;99.90;;;;;;5024693;28;20045;-58
2023/08/28 05:39:30;;;;;;;12.75;3.50;;;12.50;99.90;;;;;;5047616;28;20053;-62
2023/08/28 05:41:58;;;;;;;13.15;3.38;;;12.40;99.90;;;;;;5047840;28;20055;-59
2023/08/28 05:44:25;;;;;;;14.25;3.03;;;12.40;99.90;;;;;;5047090;28;20051;-61
2023/08/28 05:46:53;;;;;;;14.85;3.40;;;12.30;99.90;;;;;;5046451;28;20052;-58
2023/08/28 05:49:21;;;;;;;10.55;3.20;;;12.40;99.90;;;;;;5038981;28;20053;-59
2023/08/28 05:51:48;;;;;;;12.40;2.83;;;12.30;99.90;;;;;;5038518;28;20056;-58
2023/08/28 05:54:17;;;;;;;14.68;4.55;;;12.10;99.90;;;;;;5043905;28;20067;-58
2023/08/28 05:56:44;;;;;;;11.70;3.03;;;12.20;99.90;;;;;;5045014;28;20045;-58
2023/08/28 05:59:12;;;;;;;9.50;3.20;;;12.20;99.90;;;;;;5026976;28;20049;-58
2023/08/28 06:01:41;;;;;;;6.93;2.80;;;12.20;99.90;;;;;;5062522;28;20044;-58
2023/08/28 06:04:09;;;;;;;16.85;2.75;;;12.20;99.90;;;;;;5033503;28;20068;-58
2023/08/28 06:06:38;;;;;;;20.75;3.45;;;12.20;99.90;;;;;;5026680;28;20546;-58
2023/08/28 06:09:07;;;;;;;9.55;2.55;;;12.20;99.90;;;;;;5043393;28;20404;-58
2023/08/28 06:11:35;;;;;;;15.23;2.97;;;12.20;99.90;;;;;;5046559;28;20053;-58
2023/08/28 06:14:04;;;;;;;15.35;3.00;;;12.20;99.90;;;;;;5032611;28;20492;-58
2023/08/28 06:16:33;;;;;;;15.77;2.58;;;12.20;99.90;;;;;;5027054;28;20052;-58
2023/08/28 06:19:03;;;;;;;13.35;2.83;;;12.20;99.90;;;;;;5037514;28;20044;-58
2023/08/28 06:21:32;;;;;;;10.75;2.67;;;12.30;99.90;;;;;;5026833;28;20046;-58
2023/08/28 06:24:00;;;;;;;16.77;3.25;;;12.40;99.90;;;;;;5045643;28;20056;-58
2023/08/28 06:26:28;;;;;;;18.90;3.53;;;12.40;99.90;;;;;;5042400;28;20045;-58
2023/08/28 06:28:57;;;;;;;20.98;3.47;;;12.50;99.90;;;;;;5040886;28;20469;-58
2023/08/28 06:31:25;;;;;;;17.50;3.17;;;12.60;99.90;;;;;;5057140;28;20404;-58
2023/08/28 06:33:53;;;;;;;13.25;2.75;;;12.70;99.90;;;;;;5041210;28;20045;-58
2023/08/28 06:36:21;;;;;;;9.95;2.67;;;12.70;99.90;;;;;;5028145;28;20052;-58
2023/08/28 06:38:51;;;;;;;18.63;2.63;;;12.90;99.90;;;;;;5037570;28;20049;-58
2023/08/28 06:41:22;;;;;;;11.68;2.20;;;12.90;99.90;;;;;;5027079;28;20045;-58
2023/08/28 06:43:49;;;;;;;13.25;2.50;;;13.00;99.90;;;;;;5044344;28;20048;-58
2023/08/28 06:46:17;;;;;;;15.88;2.72;;;13.10;99.90;;;;;;5045491;28;20049;-58
2023/08/28 06:48:45;;;;;;;12.75;2.22;;;13.20;99.90;;;;;;5041749;28;20046;-58
2023/08/28 06:51:13;;;;;;;13.65;2.65;;;13.30;99.90;;;;;;5031314;28;20060;-58
2023/08/28 06:53:41;;;;;;;16.15;3.10;;;13.30;99.90;;;;;;5047254;28;20541;-58
2023/08/28 06:56:08;;;;;;;19.15;2.20;;;13.40;99.90;;;;;;5046416;28;20045;-58
2023/08/28 06:58:36;;;;;;;12.20;2.35;;;13.50;99.90;;;;;;5058670;28;20072;-58
2023/08/28 07:01:04;;;;;;;10.85;2.80;;;13.60;99.90;;;;;;5044475;28;20049;-58
2023/08/28 07:03:31;;;;;;;10.65;2.20;;;13.60;99.90;;;;;;5045752;28;20480;-59
2023/08/28 07:05:59;;;;;;;10.18;2.53;;;13.70;99.90;;;;;;5024164;28;20037;-58
2023/08/28 07:08:27;;;;;;;13.18;3.05;;;13.70;99.90;;;;;;5036861;28;20053;-58
2023/08/28 07:10:54;;;;;;;14.07;2.85;;;13.80;99.90;;;;;;5047669;28;20041;-58
2023/08/28 07:13:22;;;;;;;16.40;4.00;;;13.90;99.90;;;;;;5046902;28;20049;-58
2023/08/28 07:15:50;;;;;;;11.20;2.92;;;13.90;99.90;;;;;;5047079;28;20045;-58
2023/08/28 07:18:18;;;;;;;14.00;3.35;;;14.00;99.90;;;;;;5045544;28;20397;-58
2023/08/28 07:20:45;;;;;;;15.38;2.28;;;14.00;99.90;;;;;;5027657;28;20057;-58
2023/08/28 07:23:13;;;;;;;11.18;3.10;;;14.10;99.90;;;;;;5044104;28;20400;-58
2023/08/28 07:25:41;;;;;;;14.60;2.72;;;14.10;99.90;;;;;;5050946;28;20481;-58
2023/08/28 07:28:09;;;;;;;13.10;2.20;;;14.20;99.90;;;;;;5050605;28;20041;-58
2023/08/28 07:30:36;;;;;;;12.20;2.85;;;14.30;99.90;;;;;;5054060;28;20045;-58
2023/08/28 07:33:05;;;;;;;15.60;2.33;;;14.30;99.90;;;;;;5049244;28;20481;-58
2023/08/28 07:35:36;;;;;;;10.15;2.10;;;14.30;99.90;;;;;;5033778;28;20046;-58
2023/08/28 07:38:07;;;;;;;14.25;2.72;;;14.30;99.90;;;;;;5043973;28;20511;-58
2023/08/28 07:40:35;;;;;;;11.85;3.20;;;14.30;99.90;;;;;;5070469;28;20511;-58
2023/08/28 07:43:08;;;;;;;15.55;2.90;;;14.30;99.90;;;;;;5055301;28;20049;-59
2023/08/28 07:45:36;;;;;;;12.50;2.50;;;14.20;99.90;;;;;;5050291;28;20056;-58
2023/08/28 07:48:04;;;;;;;9.13;2.30;;;14.20;99.90;;;;;;5049975;28;20045;-58
2023/08/28 07:50:32;;;;;;;11.98;2.25;;;14.20;99.90;;;;;;5034787;28;20045;-59
2023/08/28 07:53:00;;;;;;;10.43;2.50;;;14.10;99.90;;;;;;5041701;28;20064;-58
2023/08/28 07:55:29;;;;;;;18.05;3.25;;;14.10;99.90;;;;;;5049336;28;20045;-58
2023/08/28 07:57:57;;;;;;;15.05;2.90;;;14.10;99.90;;;;;;5048979;28;20476;-58
2023/08/28 08:00:24;;;;;;;13.60;2.67;;;14.20;99.90;;;;;;5058443;28;20488;-58
2023/08/28 08:02:52;;;;;;;13.25;3.08;;;14.20;99.90;;;;;;5055793;28;20053;-58
2023/08/28 08:05:20;;;;;;;10.02;2.92;;;14.20;99.90;;;;;;5033564;28;20048;-58
2023/08/28 08:07:47;;;;;;;7.72;2.22;;;14.30;99.90;;;;;;5034460;28;20037;-59
2023/08/28 08:10:15;;;;;;;20.40;2.88;;;14.40;99.90;;;;;;5049737;28;20493;-59
2023/08/28 08:12:45;;;;;;;15.45;2.53;;;14.40;99.90;;;;;;5055544;28;20492;-58
2023/08/28 08:15:12;;;;;;;13.73;2.33;;;14.50;99.90;;;;;;5069888;28;20044;-58
2023/08/28 08:17:40;;;;;;;6.57;2.28;;;14.60;99.90;;;;;;5066348;28;20056;-58
2023/08/28 08:20:12;;;;;;;10.90;2.70;;;14.60;99.90;;;;;;5037885;28;20412;-58
2023/08/28 08:22:42;;;;;;;12.82;2.45;;;14.70;99.90;;;;;;5053169;28;20075;-58
2023/08/28 08:25:10;;;;;;;14.07;2.80;;;14.70;99.90;;;;;;5069623;28;20056;-59
2023/08/28 08:27:39;;;;;;;13.70;2.25;;;14.80;99.90;;;;;;5066940;28;20516;-58
2023/08/28 08:30:08;;;;;;;11.65;2.20;;;14.90;99.90;;;;;;5055856;28;20052;-58
2023/08/28 08:32:36;;;;;;;12.00;1.85;;;14.90;99.90;;;;;;5044419;28;20052;-59
2023/08/28 08:35:05;;;;;;;12.73;2.08;;;15.00;99.90;;;;;;5048164;28;20052;-58
2023/08/28 08:37:33;;;;;;;14.68;2.13;;;15.10;99.90;;;;;;5048268;28;20055;-58
2023/08/28 08:40:02;;;;;;;16.10;2.53;;;15.20;99.90;;;;;;5049928;28;20053;-58
2023/08/28 08:42:30;;;;;;;11.07;2.55;;;15.30;99.90;;;;;;5048398;28;20060;-59
2023/08/28 08:44:58;;;;;;;9.85;2.00;;;15.40;99.90;;;;;;5049094;28;20045;-58
2023/08/28 08:47:26;;;;;;;14.85;2.78;;;15.50;99.90;;;;;;5048903;28;20492;-58
2023/08/28 08:49:57;;;;;;;11.60;3.13;;;15.50;99.90;;;;;;5039464;28;20041;-59
2023/08/28 08:52:26;;;;;;;11.73;2.13;;;15.50;99.90;;;;;;5042341;28;20047;-59
2023/08/28 08:55:00;;;;;;;6.97;2.42;;;15.50;99.90;;;;;;5067966;28;20436;-59
2023/08/28 08:57:35;;;;;;;13.20;2.28;;;15.50;99.90;;;;;;5068012;28;20105;-59
2023/08/28 09:00:11;;;;;;;11.10;2.90;;;15.50;99.90;;;;;;5066043;28;20055;-59
2023/08/28 09:02:40;;;;;;;12.82;2.63;;;15.40;99.90;;;;;;5048823;28;20044;-59
2023/08/28 09:05:12;;;;;;;12.18;3.13;;;15.40;99.90;;;;;;5043304;28;20046;-58
2023/08/28 09:07:41;;;;;;;11.98;2.65;;;15.40;99.90;;;;;;5035032;28;20051;-58
2023/08/28 09:10:10;;;;;;;8.52;1.80;;;15.40;99.90;;;;;;5068615;28;20049;-58
2023/08/28 09:12:37;;;;;;;10.63;2.60;;;15.50;99.90;;;;;;5056913;28;20040;-58
2023/08/28 09:15:06;;;;;;;6.43;1.80;;;15.50;99.90;;;;;;5048854;28;20049;-58
2023/08/28 09:17:39;;;;;;;7.50;1.80;;;15.50;99.90;;;;;;5048154;28;20044;-58
2023/08/28 09:20:25;;;;;;;10.18;2.00;;;15.50;99.90;;;;;;5042332;28;20042;-58
2023/08/28 09:22:54;;;;;;;12.00;2.25;;;15.50;99.90;;;;;;5046027;28;20048;-59
2023/08/28 09:25:23;;;;;;;10.90;2.08;;;15.50;99.90;;;;;;5049394;28;20056;-58
2023/08/28 09:27:54;;;;;;;11.90;2.20;;;15.40;99.90;;;;;;5052804;28;20044;-58
2023/08/28 09:30:36;;;;;;;8.85;2.30;;;15.50;99.90;;;;;;5068105;28;20048;-58
2023/08/28 09:33:06;;;;;;;12.77;2.60;;;15.50;99.90;;;;;;5057827;28;20045;-58
2023/08/28 09:35:42;;;;;;;12.00;2.75;;;15.60;99.90;;;;;;5039403;28;20045;-58
2023/08/28 09:38:11;;;;;;;10.05;2.15;;;15.70;99.90;;;;;;5042336;28;20057;-58
2023/08/28 09:40:41;;;;;;;8.38;2.10;;;15.70;99.90;;;;;;5068415;28;20071;-58
2023/08/28 09:43:13;;;;;;;6.75;2.08;;;15.80;99.90;;;;;;5049907;28;20045;-58
2023/08/28 09:45:43;;;;;;;13.68;2.35;;;15.80;99.90;;;;;;5047542;28;20059;-58
2023/08/28 09:48:11;;;;;;;8.10;2.05;;;15.80;99.90;;;;;;5047782;28;20059;-59
2023/08/28 09:50:42;;;;;;;9.98;2.63;;;15.80;99.90;;;;;;5040045;28;20056;-59
2023/08/28 09:53:12;;;;;;;13.88;2.58;;;15.80;99.90;;;;;;5044968;28;20527;-58
2023/08/28 09:55:48;;;;;;;10.43;2.30;;;15.70;99.90;;;;;;5046790;28;20057;-58
2023/08/28 09:58:18;;;;;;;12.65;2.47;;;15.60;99.90;;;;;;5047011;28;20049;-58
2023/08/28 10:00:45;;;;;;;8.20;2.10;;;15.40;99.90;;;;;;5058689;28;20056;-58
2023/08/28 10:03:14;;;;;;;3.13;1.25;;;15.40;99.90;;;;;;5061120;28;20049;-59
2023/08/28 10:05:49;;;;;;;4.32;1.02;;;15.20;99.90;;;;;;5043662;28;20048;-59
2023/08/28 10:08:17;;;;;;;7.15;1.15;;;15.00;99.90;;;;;;5035633;28;20060;-59
2023/08/28 10:10:50;;;;;;;4.72;1.20;;;14.90;99.90;;;;;;5048096;28;20049;-59
2023/08/28 10:13:22;;;;;;;7.90;1.80;;;14.80;99.90;;;;;;5058868;28;20473;-58
2023/08/28 10:16:04;;;;;;;9.60;1.10;;;14.70;99.90;;;;;;5067953;28;20052;-58
2023/08/28 10:18:38;;;;;;;5.88;1.00;;;14.70;99.90;;;;;;5026778;28;20053;-58
2023/08/28 10:21:07;;;;;;;7.68;1.08;;;14.60;99.90;;;;;;5037814;28;20057;-58
2023/08/28 10:23:35;;;;;;;4.63;0.80;;;14.70;99.90;;;;;;5047449;28;20052;-58
2023/08/28 10:26:03;;;;;;;7.55;1.00;;;14.70;99.90;;;;;;5047948;28;20049;-58
2023/08/28 10:28:32;;;;;;;6.47;0.93;;;14.70;99.90;;;;;;5047828;28;20408;-58
2023/08/28 10:31:01;;;;;;;6.40;1.25;;;14.80;99.90;;;;;;5061480;28;20415;-59
2023/08/28 10:33:30;;;;;;;5.25;2.33;;;14.80;99.90;;;;;;5061211;28;20047;-59
2023/08/28 10:36:00;;;;;;;6.03;1.83;;;14.80;99.90;;;;;;5052575;28;20041;-59
2023/08/28 10:38:28;;;;;;;1.47;0.80;;;14.80;99.90;;;;;;5044461;28;20396;-58
2023/08/28 10:40:58;;;;;;;4.38;2.45;;;14.80;99.90;;;;;;5067754;28;20301;-60
2023/08/28 10:43:27;;;;;;;6.43;2.97;;;14.80;99.90;;;;;;5048944;28;20512;-59
2023/08/28 10:45:59;;;;;;;5.82;2.05;;;14.90;99.90;;;;;;5047631;28;20053;-59
2023/08/28 10:48:28;;;;;;;4.03;1.80;;;15.00;99.90;;;;;;5047191;28;20049;-59
2023/08/28 10:50:57;;;;;;;7.55;4.78;;;15.10;99.90;;;;;;5041228;28;20045;-59
2023/08/28 10:53:26;;;;;;;18.52;10.38;;;15.30;99.90;;;;;;5044820;28;20400;-59
2023/08/28 10:56:00;;;;;;;12.30;6.50;;;15.40;99.90;;;;;;5029820;28;20044;-58
2023/08/28 10:58:32;;;;;;;18.00;12.60;;;15.60;99.90;;;;;;5047861;28;20033;-59
2023/08/28 11:01:19;;;;;;;8.43;4.18;;;15.90;99.90;;;;;;5063807;28;20037;-59
2023/08/28 11:03:57;;;;;;;7.63;2.50;;;16.10;99.90;;;;;;5045503;28;20481;-59
2023/08/28 11:06:34;;;;;;;4.32;1.25;;;16.30;99.90;;;;;;5041909;28;20629;-59
2023/08/28 11:09:32;;;;;;;4.50;1.58;;;16.50;99.90;;;;;;5044360;28;20064;-58
2023/08/28 11:12:00;;;;;;;6.10;1.80;;;16.70;99.90;;;;;;5049999;28;20044;-59
2023/08/28 11:14:38;;;;;;;6.72;2.20;;;16.90;99.90;;;;;;5047688;28;20060;-59
2023/08/28 11:17:22;;;;;;;7.07;1.23;;;17.10;99.90;;;;;;5051191;28;20052;-59
2023/08/28 11:19:55;;;;;;;6.00;1.30;;;17.30;99.90;;;;;;5031341;28;20050;-59
2023/08/28 11:22:37;;;;;;;4.80;1.08;;;17.50;99.90;;;;;;5039601;28;20048;-59
2023/08/28 11:25:08;;;;;;;3.35;1.67;;;17.60;99.90;;;;;;5051000;28;20056;-59
2023/08/28 11:27:56;;;;;;;5.68;1.90;;;17.70;99.90;;;;;;5050754;28;20041;-59
2023/08/28 11:30:25;;;;;;;7.80;1.80;;;17.60;99.90;;;;;;5059492;28;20048;-58
2023/08/28 11:32:55;;;;;;;6.95;1.80;;;17.50;99.90;;;;;;5063215;28;20056;-59
2023/08/28 11:35:23;;;;;;;;;;;17.50;99.90;;;;;;5071096;28;20488;-58
2023/08/28 11:37:55;;;;;;;3.38;1.45;;;17.40;99.90;;;;;;5036026;28;19920;-61
2023/08/28 11:40:25;;;;;;;5.30;1.50;;;17.20;99.90;;;;;;5050570;28;20057;-61
2023/08/28 11:43:06;;;;;;;6.13;1.90;;;17.00;99.90;;;;;;5050631;28;20041;-61
2023/08/28 11:45:35;;;;;;;7.43;2.30;;;16.80;99.90;;;;;;5029098;28;20053;-59
2023/08/28 11:48:03;;;;;;;5.13;2.60;;;16.60;99.90;;;;;;5035191;28;20049;-58
2023/08/28 11:50:31;;;;;;;4.40;1.77;;;16.50;99.90;;;;;;5050483;28;20523;-59
2023/08/28 11:52:59;;;;;;;4.78;1.83;;;16.30;99.90;;;;;;5045128;28;20045;-60
2023/08/28 11:55:33;;;;;;;5.72;1.50;;;16.20;99.90;;;;;;5050700;28;20064;-59
2023/08/28 11:58:07;;;;;;;3.25;1.00;;;16.10;99.90;;;;;;5049315;28;20045;-60
2023/08/28 12:00:35;;;;;;;3.35;1.27;;;16.00;99.90;;;;;;5060450;28;20045;-60
2023/08/28 12:03:06;;;;;;;3.25;1.17;;;15.90;99.90;;;;;;5056608;28;20049;-60
2023/08/28 12:05:35;;;;;;;6.22;1.40;;;15.80;99.90;;;;;;5049868;28;20480;-59
2023/08/28 12:08:04;;;;;;;5.05;2.00;;;15.80;99.90;;;;;;5035887;28;20064;-59
2023/08/28 12:10:32;;;;;;;6.25;2.55;;;15.90;99.90;;;;;;5049860;28;20554;-59
2023/08/28 12:13:00;;;;;;;7.55;3.45;;;16.00;99.90;;;;;;5046837;28;20056;-59
2023/08/28 12:15:33;;;;;;;5.40;3.23;;;16.10;99.90;;;;;;5050008;28;20064;-59
2023/08/28 12:18:06;;;;;;;5.32;1.98;;;16.40;99.90;;;;;;5048592;28;20074;-59
2023/08/28 12:20:35;;;;;;;2.22;1.00;;;16.60;99.90;;;;;;5044157;28;20041;-59
2023/08/28 12:23:03;;;;;;;2.03;0.73;;;16.80;99.90;;;;;;5042598;28;20051;-59
2023/08/28 12:25:41;;;;;;;2.10;0.57;;;16.90;99.90;;;;;;5048810;28;20039;-59
2023/08/28 12:28:10;;;;;;;4.10;1.02;;;17.10;99.90;;;;;;5049623;28;20052;-60
2023/08/28 12:30:39;;;;;;;2.63;1.60;;;17.20;99.90;;;;;;5060256;28;20052;-60
2023/08/28 12:33:08;;;;;;;5.45;1.35;;;17.40;99.90;;;;;;5054443;28;20056;-60
2023/08/28 12:35:37;;;;;;;4.47;1.10;;;17.50;99.90;;;;;;5049793;28;20041;-59
2023/08/28 12:38:05;;;;;;;4.00;0.52;;;17.60;99.90;;;;;;5037565;28;20060;-60
2023/08/28 12:40:35;;;;;;;3.15;0.70;;;17.70;99.90;;;;;;5049953;28;20049;-59
2023/08/28 12:43:13;;;;;;;2.47;0.70;;;17.90;99.90;;;;;;5049276;28;20587;-59
2023/08/28 12:45:42;;;;;;;7.85;0.80;;;18.10;99.90;;;;;;5049170;28;20052;-59
2023/08/28 12:48:10;;;;;;;5.20;0.95;;;18.20;99.90;;;;;;5049045;28;20049;-59
2023/08/28 12:50:38;;;;;;;4.15;1.13;;;18.30;99.90;;;;;;5045959;28;20049;-59
2023/08/28 12:53:05;;;;;;;2.17;0.73;;;18.40;99.90;;;;;;5047859;28;20049;-59
2023/08/28 12:55:33;;;;;;;1.85;0.70;;;18.60;99.90;;;;;;5048725;28;20400;-59